Altoona, Alabama
Current Conditions -  °F | °C
As of 3:55 PM on Sunday 23 Nov 2014 (Local Time) from K8A0 Reporting Station
Overcast Overcast  
Wind Chill: 55°   Ceiling: 500
Heat Index: 55°   Visibility: 10mi
Dew Point: 55°   Wind: 12mph
Humidity: 100%   Direction: 140°SE
Pressure: 29.54"   Gusts: 18mph
Location:  34.03°N, 86.33°W
Report Text: K8A0 232155Z AUTO 14010G16KT 10SM BKN005 OVC013 13/13 A2954 RMK AO2 P0002
Loading
Personal Weather Stations






























Interactive Weather Map New forecast layout! Learn more

10-Day Weather Forecast

Advertisements
Track Severe Weather on mobile